Terminal Aerodrome Forecast
Issued by NWS

Home | Current Version | Previous Version | Text Only | Print | Product List | Glossary On
Versions: 1 2 3 4 5 6 7 8 9 10 11 12 13 14 15 16 17 18 19 20
000
FTUS43 KMQT 270303 AAB
TAFSAW
TAF AMD
KSAW 270303Z 2703/2724 36012G22KT 6SM -SHSN BKN035
      TEMPO 2703/2705 5SM BLSN
     FM270500 01010G20KT 3SM -SHSN BLSN OVC030
     FM271000 01007KT 6SM -SHSN BKN030
     FM271700 01009KT P6SM SCT030=

USA.gov is the U.S. government's official web portal to all federal, state and local government web resources and services.